createdAt,value
2022-08-31T00:00:34.336Z,76021.31
2022-08-31T00:03:27.183Z,76021.31
2022-08-31T00:06:02.394Z,76029.41
2022-08-31T00:08:30.212Z,76035.47
2022-08-31T00:10:57.447Z,76033.47
2022-08-31T00:13:26.182Z,76041.56
2022-08-31T00:15:54.842Z,76041.56
2022-08-31T00:18:24.443Z,76051.69
2022-08-31T00:20:51.396Z,76047.66
2022-08-31T00:23:18.492Z,76053.72
2022-08-31T00:25:48.461Z,76053.72
2022-08-31T00:28:16.331Z,76059.81
2022-08-31T00:30:44.085Z,76069.94
2022-08-31T00:33:11.719Z,76069.94
2022-08-31T00:35:41.768Z,76082.09
2022-08-31T00:38:10.270Z,76078.06
2022-08-31T00:40:44.803Z,76078.06
2022-08-31T00:43:33.144Z,76090.22
2022-08-31T00:46:00.322Z,76094.25
2022-08-31T00:48:27.419Z,76090.22
2022-08-31T00:50:55.180Z,76094.25
2022-08-31T00:53:22.477Z,76094.25
2022-08-31T00:55:49.392Z,76102.38
2022-08-31T00:58:16.438Z,76106.41
2022-08-31T01:00:45.231Z,76110.47
2022-08-31T01:03:12.195Z,76104.41
2022-08-31T01:05:40.305Z,76114.53
2022-08-31T01:08:08.430Z,76106.41
2022-08-31T01:10:39.171Z,76106.41
2022-08-31T01:13:07.055Z,76114.53
2022-08-31T01:15:36.210Z,76118.59
2022-08-31T01:18:06.422Z,76118.59
2022-08-31T01:20:49.255Z,76124.66
2022-08-31T01:23:23.352Z,76126.69
2022-08-31T01:25:53.627Z,76144.94
2022-08-31T01:28:20.737Z,76142.91
2022-08-31T01:31:00.068Z,76149.00
2022-08-31T01:33:27.871Z,76149.00
2022-08-31T01:35:56.837Z,76151.00
2022-08-31T01:38:24.117Z,76159.13
2022-08-31T01:40:57.897Z,76159.13
2022-08-31T01:43:25.495Z,76163.19
2022-08-31T01:45:52.791Z,76163.19
2022-08-31T01:48:21.051Z,76163.19
2022-08-31T01:50:48.056Z,76165.19
2022-08-31T01:53:16.306Z,76171.28
2022-08-31T01:55:43.688Z,76167.22
2022-08-31T01:58:10.701Z,76171.28
2022-08-31T02:00:50.731Z,76169.25
2022-08-31T02:03:18.161Z,76169.25
2022-08-31T02:05:45.027Z,76167.22
2022-08-31T02:08:12.451Z,76171.28
2022-08-31T02:10:39.918Z,76167.22
2022-08-31T02:13:06.991Z,76171.28
2022-08-31T02:15:37.847Z,76171.28
2022-08-31T02:18:06.264Z,76159.13
2022-08-31T02:20:33.132Z,76165.19
2022-08-31T02:23:03.392Z,76163.19
2022-08-31T02:25:31.202Z,76167.22
2022-08-31T02:28:00.218Z,76163.19
2022-08-31T02:30:27.401Z,76167.22
2022-08-31T02:32:54.371Z,76173.31
2022-08-31T02:35:21.803Z,76169.25
2022-08-31T02:37:49.211Z,76171.28
2022-08-31T02:40:16.927Z,76171.28
2022-08-31T02:42:53.791Z,76167.22
2022-08-31T02:45:26.777Z,76171.28
2022-08-31T02:48:00.141Z,76173.31
2022-08-31T02:50:50.155Z,76171.28
2022-08-31T02:53:20.591Z,76171.28
2022-08-31T02:55:49.214Z,76167.22
2022-08-31T02:58:20.686Z,76163.19
2022-08-31T03:00:49.825Z,76171.28
2022-08-31T03:03:17.583Z,76175.34
2022-08-31T03:05:45.053Z,76167.22
2022-08-31T03:08:12.223Z,76171.28
2022-08-31T03:10:39.239Z,76173.31
2022-08-31T03:13:06.333Z,76171.28
2022-08-31T03:15:34.796Z,76171.28
2022-08-31T03:18:06.712Z,76163.19
2022-08-31T03:20:34.831Z,76169.25
2022-08-31T03:23:03.032Z,76167.22
2022-08-31T03:25:31.005Z,76159.13
2022-08-31T03:27:58.070Z,76159.13
2022-08-31T03:30:27.490Z,76163.19
2022-08-31T03:33:07.046Z,76151.00
2022-08-31T03:35:34.993Z,76159.13
2022-08-31T03:38:02.692Z,76159.13
2022-08-31T03:40:30.574Z,76163.19
2022-08-31T03:42:58.958Z,76159.13
2022-08-31T03:45:27.956Z,76159.13
2022-08-31T03:47:55.325Z,76171.28
2022-08-31T03:50:24.263Z,76163.19
2022-08-31T03:53:04.237Z,76155.06
2022-08-31T03:55:36.934Z,76155.06
2022-08-31T03:58:06.096Z,76155.06
2022-08-31T04:00:34.617Z,76155.06
2022-08-31T04:03:06.327Z,76151.00
2022-08-31T04:05:36.985Z,76151.00
2022-08-31T04:08:18.379Z,76153.03
2022-08-31T04:10:50.751Z,76146.97
2022-08-31T04:13:38.187Z,76142.91
2022-08-31T04:16:24.725Z,76136.81
2022-08-31T04:19:09.312Z,76142.91
2022-08-31T04:21:44.566Z,76134.78
2022-08-31T04:24:12.680Z,76134.78
2022-08-31T04:26:41.058Z,76144.94
2022-08-31T04:29:13.055Z,76151.00
2022-08-31T04:31:40.986Z,76146.97
2022-08-31T04:34:07.933Z,76142.91
2022-08-31T04:36:34.845Z,76142.91
2022-08-31T04:39:04.140Z,76151.00
2022-08-31T04:41:33.787Z,76153.03
2022-08-31T04:44:03.463Z,76157.09
2022-08-31T04:46:32.303Z,76153.03
2022-08-31T04:48:59.950Z,76151.00
2022-08-31T04:51:29.437Z,76138.84
2022-08-31T04:53:58.376Z,76142.91
2022-08-31T04:56:28.234Z,76142.91
2022-08-31T04:59:01.207Z,76146.97
2022-08-31T05:01:42.867Z,76144.94
2022-08-31T05:04:48.968Z,76134.78
2022-08-31T05:07:16.666Z,76134.78
2022-08-31T05:09:43.902Z,76128.72
2022-08-31T05:12:10.807Z,76130.75
2022-08-31T05:14:39.283Z,76130.75
2022-08-31T05:17:17.025Z,76130.75
2022-08-31T05:19:44.377Z,76134.78
2022-08-31T05:22:14.641Z,76142.91
2022-08-31T05:24:43.970Z,76151.00
2022-08-31T05:27:12.919Z,76155.06
2022-08-31T05:29:41.410Z,76159.13
2022-08-31T05:32:27.143Z,76167.22
2022-08-31T05:34:55.731Z,76167.22
2022-08-31T05:37:24.384Z,76163.19
2022-08-31T05:39:51.753Z,76163.19
2022-08-31T05:42:21.217Z,76163.19
2022-08-31T05:44:48.220Z,76163.19
2022-08-31T05:47:16.620Z,76163.19
2022-08-31T05:49:44.065Z,76157.09
2022-08-31T05:52:15.352Z,76149.00
2022-08-31T05:54:43.750Z,76144.94
2022-08-31T05:57:10.552Z,76144.94
2022-08-31T05:59:39.452Z,76134.78
2022-08-31T06:02:09.675Z,76134.78
2022-08-31T06:04:36.763Z,76122.63
2022-08-31T06:07:03.751Z,76114.53
2022-08-31T06:09:41.840Z,76128.72
2022-08-31T06:12:10.115Z,76130.75
2022-08-31T06:14:38.885Z,76132.78
2022-08-31T06:17:06.957Z,76122.63
2022-08-31T06:19:34.061Z,76122.63
2022-08-31T06:22:00.976Z,76114.53
2022-08-31T06:24:28.206Z,76118.59
2022-08-31T06:26:58.906Z,76120.63
2022-08-31T06:29:33.145Z,76122.63
2022-08-31T06:32:08.231Z,76124.66
2022-08-31T06:34:39.635Z,76130.75
2022-08-31T06:37:18.274Z,76134.78
2022-08-31T06:40:09.683Z,76142.91
2022-08-31T06:42:56.847Z,76157.09
2022-08-31T06:45:49.273Z,76157.09
2022-08-31T06:48:40.285Z,76151.00
2022-08-31T06:51:08.547Z,76134.78
2022-08-31T06:53:37.335Z,76118.59
2022-08-31T06:56:27.340Z,76114.53
2022-08-31T06:59:14.563Z,76110.47
2022-08-31T07:01:59.564Z,76114.53
2022-08-31T07:04:39.090Z,76114.53
2022-08-31T07:07:11.352Z,76110.47
2022-08-31T07:09:41.197Z,76104.41
2022-08-31T07:12:09.612Z,76086.16
2022-08-31T07:14:37.531Z,76067.91
2022-08-31T07:17:05.435Z,76061.84
2022-08-31T07:19:34.370Z,76053.72
2022-08-31T07:22:06.430Z,76041.56
2022-08-31T07:24:35.402Z,76037.50
2022-08-31T07:27:13.009Z,76031.44
2022-08-31T07:29:48.284Z,76021.31
2022-08-31T07:32:17.626Z,76019.28
2022-08-31T07:34:45.317Z,76029.41
2022-08-31T07:37:46.183Z,76025.34
2022-08-31T07:40:32.283Z,76025.34
2022-08-31T07:43:04.615Z,76017.25
2022-08-31T07:45:37.221Z,76005.09
2022-08-31T07:48:05.742Z,75992.94
2022-08-31T07:50:51.317Z,75984.81
2022-08-31T07:53:29.335Z,75978.75
2022-08-31T07:56:21.888Z,75976.72
2022-08-31T07:58:50.250Z,75986.84
2022-08-31T08:01:19.513Z,75988.88
2022-08-31T08:03:46.775Z,75980.75
2022-08-31T08:06:34.107Z,75980.75
2022-08-31T08:09:24.123Z,75988.88
2022-08-31T08:12:12.249Z,75982.78
2022-08-31T08:14:40.760Z,75980.75
2022-08-31T08:17:24.274Z,75984.81
2022-08-31T08:20:00.625Z,75980.75
2022-08-31T08:22:51.034Z,75968.59
2022-08-31T08:25:29.576Z,75976.72
2022-08-31T08:28:39.365Z,75978.75
2022-08-31T08:31:14.433Z,75964.56
2022-08-31T08:33:42.318Z,75960.50
2022-08-31T08:36:09.850Z,75960.50
2022-08-31T08:38:42.467Z,75964.56
2022-08-31T08:41:19.184Z,75948.34
2022-08-31T08:43:53.204Z,75944.28
2022-08-31T08:47:37.826Z,75928.06
2022-08-31T08:49:56.239Z,75928.06
2022-08-31T08:56:59.691Z,75911.84
2022-08-31T08:59:29.587Z,75913.88
2022-08-31T09:02:02.140Z,75903.75
2022-08-31T09:04:48.786Z,75899.69
2022-08-31T09:08:10.335Z,75895.66
2022-08-31T09:11:17.581Z,75887.53
2022-08-31T09:14:15.392Z,75875.38
2022-08-31T09:16:59.382Z,75889.56
2022-08-31T09:19:26.715Z,75879.44
2022-08-31T09:21:57.336Z,75871.31
2022-08-31T09:24:27.623Z,75865.25
2022-08-31T09:27:46.689Z,75855.09
2022-08-31T09:30:32.742Z,75842.94
2022-08-31T09:33:00.453Z,75847.00
2022-08-31T09:35:41.462Z,75842.94
2022-08-31T09:38:25.381Z,75842.94
2022-08-31T09:40:53.146Z,75834.84
2022-08-31T09:43:24.128Z,75818.63
2022-08-31T09:45:54.205Z,75808.50
2022-08-31T09:48:44.622Z,75806.47
2022-08-31T09:51:28.289Z,75814.56
2022-08-31T09:54:22.304Z,75806.47
2022-08-31T09:56:57.050Z,75810.53
2022-08-31T09:59:40.080Z,75800.38
2022-08-31T10:02:12.300Z,75802.41
2022-08-31T10:04:51.211Z,75794.31
2022-08-31T10:07:32.362Z,75788.22
2022-08-31T10:10:30.082Z,75778.09
2022-08-31T10:13:14.056Z,75765.94
2022-08-31T10:16:00.103Z,75749.72
2022-08-31T10:18:39.972Z,75739.59
2022-08-31T10:21:31.948Z,75725.41
2022-08-31T10:24:10.383Z,75725.41
2022-08-31T10:26:46.511Z,75723.38
2022-08-31T10:29:40.433Z,75717.28
2022-08-31T10:32:32.839Z,75709.19
2022-08-31T10:35:18.052Z,75699.06
2022-08-31T10:38:16.766Z,75709.19
2022-08-31T10:40:51.728Z,75721.34
2022-08-31T10:43:22.461Z,75739.59
2022-08-31T10:45:53.071Z,75737.56
2022-08-31T10:48:23.553Z,75721.34
2022-08-31T10:51:05.929Z,75697.03
2022-08-31T10:53:52.306Z,75652.44
2022-08-31T10:56:37.355Z,75611.91
2022-08-31T10:59:10.641Z,75587.59
2022-08-31T11:02:05.727Z,75603.81
2022-08-31T11:05:10.853Z,75583.53
2022-08-31T11:07:53.993Z,75579.50
2022-08-31T11:10:43.354Z,75551.13
2022-08-31T11:13:38.432Z,75547.06
2022-08-31T11:16:17.455Z,75571.38
2022-08-31T11:18:56.779Z,75595.69
2022-08-31T11:21:48.116Z,75618.00
2022-08-31T11:25:04.551Z,75632.19
2022-08-31T11:27:51.093Z,75636.22
2022-08-31T11:30:30.075Z,75626.09
2022-08-31T11:33:07.669Z,75605.84
2022-08-31T11:35:49.654Z,75599.75
2022-08-31T11:38:41.493Z,75587.59
2022-08-31T11:41:12.192Z,75591.66
2022-08-31T11:43:44.749Z,75579.50
2022-08-31T11:46:27.218Z,75575.44
2022-08-31T11:48:55.079Z,75567.34
2022-08-31T11:51:41.005Z,75543.00
2022-08-31T11:54:42.039Z,75549.09
2022-08-31T11:57:15.982Z,75575.44
2022-08-31T11:59:46.157Z,75585.56
2022-08-31T12:02:25.902Z,75587.59
2022-08-31T12:04:53.632Z,75583.53
2022-08-31T12:07:31.319Z,75571.38
2022-08-31T12:10:15.809Z,75563.28
2022-08-31T12:13:19.647Z,75575.44
2022-08-31T12:16:05.236Z,75575.44
2022-08-31T12:19:04.807Z,75573.41
2022-08-31T12:21:56.474Z,75579.50
2022-08-31T12:24:36.396Z,75583.53
2022-08-31T12:27:31.284Z,75603.81
2022-08-31T12:30:16.709Z,75595.69
2022-08-31T12:32:46.348Z,75583.53
2022-08-31T12:35:34.323Z,75538.97
2022-08-31T12:38:05.438Z,75510.59
2022-08-31T12:40:35.989Z,75490.31
2022-08-31T12:43:10.132Z,75498.44
2022-08-31T12:45:56.221Z,75488.31
2022-08-31T12:48:39.749Z,75506.53
2022-08-31T12:51:07.774Z,75526.81
2022-08-31T12:54:02.599Z,75538.97
2022-08-31T12:56:51.367Z,75534.91
2022-08-31T12:59:59.822Z,75506.53
2022-08-31T13:02:29.447Z,75490.31
2022-08-31T13:04:57.529Z,75486.28
2022-08-31T13:07:36.164Z,75478.16
2022-08-31T13:10:24.263Z,75474.13
2022-08-31T13:12:54.626Z,75453.84
2022-08-31T13:15:40.123Z,75445.75
2022-08-31T13:18:16.453Z,75421.44
2022-08-31T13:20:44.081Z,75425.47
2022-08-31T13:23:23.682Z,75425.47
2022-08-31T13:26:18.800Z,75401.16
2022-08-31T13:28:58.859Z,75382.94
2022-08-31T13:31:50.267Z,75360.63
2022-08-31T13:34:18.289Z,75356.59
2022-08-31T13:36:52.270Z,75384.97
2022-08-31T13:39:27.659Z,75409.28
2022-08-31T13:42:06.476Z,75401.16
2022-08-31T13:44:42.417Z,75376.84
2022-08-31T13:47:30.083Z,75364.69
2022-08-31T13:50:12.895Z,75342.41
2022-08-31T13:53:09.600Z,75320.13
2022-08-31T13:55:43.690Z,75291.75
2022-08-31T13:58:31.838Z,75273.50
2022-08-31T14:01:25.440Z,75279.59
2022-08-31T14:03:58.821Z,75283.63
2022-08-31T14:06:34.914Z,75299.84
2022-08-31T14:09:15.871Z,75328.22
2022-08-31T14:12:00.261Z,75348.47
2022-08-31T14:14:39.865Z,75356.59
2022-08-31T14:17:12.368Z,75352.53
2022-08-31T14:19:39.723Z,75340.38
2022-08-31T14:22:27.314Z,75350.50
2022-08-31T14:24:57.229Z,75340.38
2022-08-31T14:27:24.263Z,75316.06
2022-08-31T14:29:52.360Z,75322.13
2022-08-31T14:32:22.265Z,75324.16
2022-08-31T14:34:51.208Z,75336.31
2022-08-31T14:37:23.218Z,75336.31
2022-08-31T14:39:53.895Z,75334.28
2022-08-31T14:42:27.285Z,75342.41
2022-08-31T14:45:00.289Z,75360.63
2022-08-31T14:47:34.294Z,75393.06
2022-08-31T14:50:07.943Z,75401.16
2022-08-31T14:52:37.175Z,75421.44
2022-08-31T14:55:09.135Z,75433.59
2022-08-31T14:57:39.843Z,75421.44
2022-08-31T15:00:08.719Z,75393.06
2022-08-31T15:02:36.351Z,75372.78
2022-08-31T15:05:07.268Z,75364.69
2022-08-31T15:07:39.308Z,75360.63
2022-08-31T15:10:12.958Z,75354.56
2022-08-31T15:12:40.546Z,75354.56
2022-08-31T15:15:09.892Z,75360.63
2022-08-31T15:17:38.441Z,75372.78
2022-08-31T15:20:08.163Z,75386.97
2022-08-31T15:22:40.575Z,75389.00
2022-08-31T15:25:11.986Z,75397.13
2022-08-31T15:27:41.901Z,75409.28
2022-08-31T15:30:10.573Z,75435.63
2022-08-31T15:32:46.843Z,75437.63
2022-08-31T15:35:18.413Z,75445.75
2022-08-31T15:37:58.781Z,75461.97
2022-08-31T15:40:29.282Z,75461.97
2022-08-31T15:42:56.656Z,75476.16
2022-08-31T15:45:25.820Z,75486.28
2022-08-31T15:48:11.674Z,75490.31
2022-08-31T15:50:47.797Z,75490.31
2022-08-31T15:53:16.742Z,75494.38
2022-08-31T15:55:44.874Z,75504.50
2022-08-31T15:58:12.647Z,75514.66
2022-08-31T16:00:42.060Z,75526.81
2022-08-31T16:03:09.847Z,75526.81
2022-08-31T16:05:39.582Z,75530.84
2022-08-31T16:08:10.322Z,75534.91
2022-08-31T16:10:42.025Z,75530.84
2022-08-31T16:13:09.420Z,75547.06
2022-08-31T16:15:38.280Z,75551.13
2022-08-31T16:18:06.791Z,75561.25
2022-08-31T16:20:34.767Z,75571.38
2022-08-31T16:23:03.140Z,75595.69
2022-08-31T16:25:41.829Z,75603.81
2022-08-31T16:28:18.699Z,75607.88
2022-08-31T16:30:46.017Z,75638.25
2022-08-31T16:33:13.005Z,75636.22
2022-08-31T16:35:40.206Z,75658.53
2022-08-31T16:38:07.487Z,75672.72
2022-08-31T16:40:35.560Z,75678.78
2022-08-31T16:43:03.832Z,75692.97
2022-08-31T16:45:30.931Z,75684.88
2022-08-31T16:48:16.603Z,75688.94
2022-08-31T16:50:47.272Z,75705.13
2022-08-31T16:53:18.280Z,75709.19
2022-08-31T16:55:47.540Z,75717.28
2022-08-31T16:58:29.591Z,75723.38
2022-08-31T17:01:04.492Z,75729.47
2022-08-31T17:03:31.772Z,75725.41
2022-08-31T17:05:58.782Z,75721.34
2022-08-31T17:08:26.126Z,75721.34
2022-08-31T17:10:54.295Z,75725.41
2022-08-31T17:13:21.246Z,75729.47
2022-08-31T17:15:48.354Z,75739.59
2022-08-31T17:18:15.311Z,75737.56
2022-08-31T17:20:42.980Z,75737.56
2022-08-31T17:23:12.276Z,75745.66
2022-08-31T17:25:39.270Z,75749.72
2022-08-31T17:28:07.688Z,75747.69
2022-08-31T17:30:35.510Z,75753.78
2022-08-31T17:33:02.447Z,75753.78
2022-08-31T17:35:29.524Z,75761.88
2022-08-31T17:37:57.623Z,75778.09
2022-08-31T17:40:25.698Z,75786.19
2022-08-31T17:42:54.255Z,75782.16
2022-08-31T17:45:25.150Z,75794.31
2022-08-31T17:47:54.829Z,75794.31
2022-08-31T17:50:21.898Z,75802.41
2022-08-31T17:52:49.050Z,75814.56
2022-08-31T17:55:17.566Z,75820.66
2022-08-31T17:57:45.741Z,75826.72
2022-08-31T18:00:14.922Z,75838.91
2022-08-31T18:02:42.836Z,75830.78
2022-08-31T18:05:11.686Z,75834.84
2022-08-31T18:07:41.118Z,75830.78
2022-08-31T18:10:09.645Z,75838.91
2022-08-31T18:12:41.331Z,75847.00
2022-08-31T18:15:12.922Z,75855.09
2022-08-31T18:17:40.661Z,75863.22
2022-08-31T18:20:08.516Z,75865.25
2022-08-31T18:22:35.629Z,75867.28
2022-08-31T18:25:02.919Z,75873.34
2022-08-31T18:27:29.893Z,75867.28
2022-08-31T18:29:58.904Z,75875.38
2022-08-31T18:32:28.830Z,75871.31
2022-08-31T18:34:57.467Z,75871.31
2022-08-31T18:37:25.993Z,75875.38
2022-08-31T18:40:11.990Z,75883.47
2022-08-31T18:43:05.585Z,75883.47
2022-08-31T18:45:34.274Z,75883.47
2022-08-31T18:50:51.757Z,75891.59
2022-08-31T18:53:28.558Z,75895.66
2022-08-31T18:56:06.927Z,75893.63
2022-08-31T18:58:35.856Z,75899.69
2022-08-31T19:01:03.987Z,75891.59
2022-08-31T19:03:30.950Z,75895.66
2022-08-31T19:05:58.380Z,75899.69
2022-08-31T19:08:26.377Z,75901.72
2022-08-31T19:10:56.280Z,75899.69
2022-08-31T19:13:31.213Z,75899.69
2022-08-31T19:16:03.564Z,75899.69
2022-08-31T19:18:35.813Z,75899.69
2022-08-31T19:21:20.727Z,75911.84
2022-08-31T19:23:48.196Z,75911.84
2022-08-31T19:26:37.349Z,75911.84
2022-08-31T19:29:08.898Z,75915.91
2022-08-31T19:31:39.393Z,75919.97
2022-08-31T19:34:07.669Z,75919.97
2022-08-31T19:36:40.617Z,75924.00
2022-08-31T19:39:10.987Z,75926.03
2022-08-31T19:41:49.396Z,75936.19
2022-08-31T19:44:17.553Z,75940.22
2022-08-31T19:46:52.527Z,75940.22
2022-08-31T19:49:19.813Z,75948.34
2022-08-31T19:51:51.784Z,75952.38
2022-08-31T19:54:20.744Z,75952.38
2022-08-31T19:56:48.035Z,75952.38
2022-08-31T19:59:21.140Z,75964.56
2022-08-31T20:01:53.132Z,75968.59
2022-08-31T20:04:23.449Z,75974.69
2022-08-31T20:06:52.403Z,75978.75
2022-08-31T20:09:22.522Z,75976.72
2022-08-31T20:11:51.494Z,75978.75
2022-08-31T20:14:21.047Z,75980.75
2022-08-31T20:16:49.033Z,75988.88
2022-08-31T20:19:20.750Z,75992.94
2022-08-31T20:21:54.482Z,75996.97
2022-08-31T20:24:25.010Z,75996.97
2022-08-31T20:26:55.602Z,75996.97
2022-08-31T20:29:24.590Z,76003.06
2022-08-31T20:31:52.365Z,76001.03
2022-08-31T20:34:22.166Z,76013.19
2022-08-31T20:36:50.911Z,76025.34
2022-08-31T20:39:19.502Z,76027.38
2022-08-31T20:41:49.248Z,76033.47
2022-08-31T20:44:27.283Z,76033.47
2022-08-31T20:47:20.858Z,76035.47
2022-08-31T20:49:54.443Z,76025.34
2022-08-31T20:52:25.591Z,76035.47
2022-08-31T20:55:01.827Z,76041.56
2022-08-31T20:57:32.073Z,76041.56
2022-08-31T21:00:03.621Z,76055.75
2022-08-31T21:02:31.863Z,76053.72
2022-08-31T21:05:10.269Z,76061.84
2022-08-31T21:07:46.071Z,76078.06
2022-08-31T21:10:13.119Z,76082.09
2022-08-31T21:12:40.160Z,76086.16
2022-08-31T21:15:12.498Z,76094.25
2022-08-31T21:17:40.606Z,76094.25
2022-08-31T21:20:08.007Z,76108.44
2022-08-31T21:22:35.582Z,76110.47
2022-08-31T21:25:04.539Z,76114.53
2022-08-31T21:27:32.128Z,76122.63
2022-08-31T21:29:59.700Z,76130.75
2022-08-31T21:32:26.553Z,76130.75
2022-08-31T21:34:57.305Z,76134.78
2022-08-31T21:37:25.047Z,76144.94
2022-08-31T21:39:57.165Z,76149.00
2022-08-31T21:42:24.974Z,76155.06
2022-08-31T21:44:51.985Z,76163.19
2022-08-31T21:47:18.885Z,76167.22
2022-08-31T21:49:49.763Z,76175.34
2022-08-31T21:52:17.113Z,76185.47
2022-08-31T21:54:46.141Z,76187.50
2022-08-31T21:57:15.260Z,76191.56
2022-08-31T21:59:42.243Z,76201.69
2022-08-31T22:02:11.338Z,76207.78
2022-08-31T22:04:42.666Z,76207.78
2022-08-31T22:07:12.067Z,76215.88
2022-08-31T22:09:39.429Z,76211.81
2022-08-31T22:12:07.254Z,76219.94
2022-08-31T22:14:37.285Z,76228.03
2022-08-31T22:17:06.968Z,76232.09
2022-08-31T22:19:37.721Z,76236.16
2022-08-31T22:22:11.727Z,76248.31
2022-08-31T22:24:40.705Z,76246.28
2022-08-31T22:27:10.330Z,76250.34
2022-08-31T22:29:38.622Z,76256.41
2022-08-31T22:32:11.631Z,76254.38
2022-08-31T22:34:40.460Z,76262.50
2022-08-31T22:37:09.055Z,76256.41
2022-08-31T22:39:36.529Z,76256.41
2022-08-31T22:42:04.903Z,76260.47
2022-08-31T22:44:34.448Z,76266.53
2022-08-31T22:47:02.172Z,76260.47
2022-08-31T22:49:29.351Z,76268.56
2022-08-31T22:51:57.013Z,76276.69
2022-08-31T22:54:24.607Z,76276.69
2022-08-31T22:56:52.369Z,76276.69
2022-08-31T22:59:27.246Z,76288.84
2022-08-31T23:01:59.306Z,76292.91
2022-08-31T23:04:28.226Z,76301.00
2022-08-31T23:06:57.562Z,76305.06
2022-08-31T23:09:27.851Z,76317.22
2022-08-31T23:11:56.023Z,76325.31
2022-08-31T23:14:23.277Z,76335.47
2022-08-31T23:16:56.928Z,76339.50
2022-08-31T23:19:30.585Z,76345.59
2022-08-31T23:21:58.300Z,76345.59
2022-08-31T23:24:37.101Z,76355.72
2022-08-31T23:27:07.384Z,76353.72
2022-08-31T23:29:48.030Z,76365.88
2022-08-31T23:32:19.009Z,76369.91
2022-08-31T23:34:50.093Z,76373.97
2022-08-31T23:37:18.419Z,76378.03
2022-08-31T23:39:48.817Z,76382.09
2022-08-31T23:42:16.882Z,76384.09
2022-08-31T23:44:46.495Z,76390.19
2022-08-31T23:47:22.523Z,76390.19
2022-08-31T23:49:53.391Z,76398.28
2022-08-31T23:52:24.442Z,76396.28
2022-08-31T23:54:57.352Z,76402.34
2022-08-31T23:57:32.369Z,76404.38
